Time;durP1;ratioP1;P1;durP2;ratioP2;P2;SDS_P1;SDS_P2;PMS_P1;PMS_P2;Temp;Humidity;BMP_temperature;BMP_pressure;BME280_temperature;BME280_humidity;BME280_pressure;Samples;Min_cycle;Max_cycle;Signal;HPM_P1;HPM_P2
2021/09/17 00:01:46;;;;;;;0.40;0.40;;;16.30;99.90;;;;;;4413825;32;20073;-75
2021/09/17 00:04:11;;;;;;;0.37;0.37;;;16.30;99.90;;;;;;4414808;32;20121;-75
2021/09/17 00:06:37;;;;;;;2.80;0.45;;;16.30;99.90;;;;;;4414518;32;20511;-75
2021/09/17 00:09:02;;;;;;;1.25;1.15;;;16.30;99.90;;;;;;4414550;32;20081;-75
2021/09/17 00:11:28;;;;;;;0.85;0.40;;;16.30;99.90;;;;;;4414673;32;20062;-75
2021/09/17 00:13:53;;;;;;;0.40;0.40;;;16.30;99.90;;;;;;4414554;32;20545;-75
2021/09/17 00:16:19;;;;;;;1.27;0.40;;;16.40;99.90;;;;;;4417335;32;20479;-74
2021/09/17 00:18:45;;;;;;;0.40;0.40;;;16.40;99.90;;;;;;4429808;32;20123;-74
2021/09/17 00:21:10;;;;;;;0.30;0.30;;;16.40;99.90;;;;;;4428994;32;20078;-74
2021/09/17 00:23:36;;;;;;;0.60;0.60;;;16.40;99.90;;;;;;4429146;32;20137;-74
2021/09/17 00:26:01;;;;;;;0.30;0.30;;;16.40;99.90;;;;;;4429241;32;20085;-74
2021/09/17 00:28:27;;;;;;;0.30;0.30;;;16.40;99.90;;;;;;4428629;32;20450;-74
2021/09/17 00:30:52;;;;;;;0.57;0.57;;;16.30;99.90;;;;;;4429225;32;20073;-74
2021/09/17 00:33:18;;;;;;;0.32;0.32;;;16.30;99.90;;;;;;4429605;32;20502;-74
2021/09/17 00:35:43;;;;;;;0.30;0.30;;;16.40;99.90;;;;;;4425050;32;20066;-76
2021/09/17 00:38:09;;;;;;;0.30;0.30;;;16.30;99.90;;;;;;4414132;32;20069;-74
2021/09/17 00:40:34;;;;;;;0.30;0.30;;;16.30;99.90;;;;;;4413159;32;20518;-74
2021/09/17 00:43:00;;;;;;;14.13;0.60;;;16.30;99.90;;;;;;4413691;32;20070;-74
2021/09/17 00:45:25;;;;;;;0.40;0.40;;;16.30;99.90;;;;;;4414331;32;20123;-74
2021/09/17 00:47:51;;;;;;;0.43;0.43;;;16.30;99.90;;;;;;4414159;32;20118;-74
2021/09/17 00:50:20;;;;;;;0.37;0.37;;;16.30;99.90;;;;;;4413593;32;20523;-74
2021/09/17 00:52:47;;;;;;;0.45;0.45;;;16.20;99.90;;;;;;4413567;32;20061;-75
2021/09/17 00:55:14;;;;;;;0.30;0.30;;;16.20;99.90;;;;;;4414332;32;20128;-75
2021/09/17 00:57:39;;;;;;;0.40;0.40;;;16.20;99.90;;;;;;4412618;32;20089;-75
2021/09/17 01:00:08;;;;;;;0.50;0.50;;;16.30;99.90;;;;;;4413691;32;20073;-75
2021/09/17 01:02:33;;;;;;;0.40;0.40;;;16.20;99.90;;;;;;4413797;32;20065;-75
2021/09/17 01:04:59;;;;;;;0.57;0.57;;;16.20;99.90;;;;;;4414240;32;20385;-75
2021/09/17 01:07:25;;;;;;;0.40;0.40;;;16.30;99.90;;;;;;4413878;32;20090;-75
2021/09/17 01:09:52;;;;;;;0.60;0.60;;;16.30;99.90;;;;;;4414086;32;20066;-75
2021/09/17 01:12:18;;;;;;;0.30;0.30;;;16.30;99.90;;;;;;4413538;32;20070;-75
2021/09/17 01:14:44;;;;;;;0.40;0.40;;;16.30;99.90;;;;;;4413969;32;20135;-75
2021/09/17 01:17:09;;;;;;;0.30;0.30;;;16.30;99.90;;;;;;4421910;32;20458;-75
2021/09/17 01:19:35;;;;;;;0.30;0.30;;;16.30;99.90;;;;;;4429269;32;20086;-75
2021/09/17 01:22:04;;;;;;;1.10;0.60;;;16.30;99.90;;;;;;4429768;32;20120;-75
2021/09/17 01:24:30;;;;;;;0.32;0.32;;;16.20;99.90;;;;;;4428663;32;20069;-75
2021/09/17 01:26:56;;;;;;;0.30;0.30;;;16.30;99.90;;;;;;4427952;32;20069;-76
2021/09/17 01:29:22;;;;;;;0.22;0.22;;;16.30;99.90;;;;;;4428976;32;20077;-75
2021/09/17 01:31:48;;;;;;;0.30;0.30;;;16.30;99.90;;;;;;4428710;32;20070;-75
2021/09/17 01:34:17;;;;;;;0.62;0.47;;;16.20;99.90;;;;;;4429129;32;20539;-75
2021/09/17 01:36:43;;;;;;;0.20;0.20;;;16.30;99.90;;;;;;4417529;32;20082;-76
2021/09/17 01:39:09;;;;;;;0.80;0.80;;;16.30;99.90;;;;;;4414991;32;20110;-75
2021/09/17 01:41:35;;;;;;;0.30;0.30;;;16.30;99.90;;;;;;4412409;32;20468;-75
2021/09/17 01:44:00;;;;;;;0.30;0.30;;;16.30;99.90;;;;;;4413674;32;20069;-75
2021/09/17 01:46:26;;;;;;;0.40;0.40;;;16.30;99.90;;;;;;4413885;32;20081;-75
2021/09/17 01:48:51;;;;;;;0.30;0.30;;;16.30;99.90;;;;;;4416253;32;20497;-75
2021/09/17 01:51:17;;;;;;;0.30;0.30;;;16.30;99.90;;;;;;4416053;32;20069;-76
2021/09/17 01:53:43;;;;;;;0.45;0.45;;;16.30;99.90;;;;;;4415538;32;20078;-75
2021/09/17 01:56:09;;;;;;;0.30;0.30;;;16.30;99.90;;;;;;4416348;32;20062;-75
2021/09/17 01:58:34;;;;;;;0.40;0.40;;;16.30;99.90;;;;;;4415144;32;20089;-75
2021/09/17 02:01:00;;;;;;;0.30;0.30;;;16.30;99.90;;;;;;4415977;32;20078;-76
2021/09/17 02:03:26;;;;;;;0.30;0.30;;;16.30;99.90;;;;;;4415736;32;20065;-75
2021/09/17 02:05:51;;;;;;;0.40;0.40;;;16.30;99.90;;;;;;4415805;32;20061;-76
2021/09/17 02:08:17;;;;;;;0.30;0.30;;;16.30;99.90;;;;;;4416731;32;20401;-75
2021/09/17 02:10:42;;;;;;;0.37;0.37;;;16.20;99.90;;;;;;4416395;32;20078;-75
2021/09/17 02:13:08;;;;;;;0.50;0.50;;;16.20;99.90;;;;;;4416711;32;20068;-75
2021/09/17 02:15:33;;;;;;;0.88;0.30;;;16.20;99.90;;;;;;4416698;32;20381;-75
2021/09/17 02:17:59;;;;;;;0.43;0.43;;;16.20;99.90;;;;;;4429408;32;20483;-75
2021/09/17 02:20:25;;;;;;;0.50;0.50;;;16.30;99.90;;;;;;4430768;32;20078;-75
2021/09/17 02:22:50;;;;;;;0.30;0.30;;;16.20;99.90;;;;;;4430444;32;20091;-75
2021/09/17 02:25:16;;;;;;;0.30;0.30;;;16.20;99.90;;;;;;4430934;32;20463;-75
2021/09/17 02:27:41;;;;;;;0.68;0.68;;;16.20;99.90;;;;;;4430121;32;20065;-76
2021/09/17 02:30:08;;;;;;;0.30;0.30;;;16.20;99.90;;;;;;4430687;32;20099;-74
2021/09/17 02:32:34;;;;;;;1.48;1.02;;;16.20;99.90;;;;;;4430990;32;20083;-75
2021/09/17 02:35:00;;;;;;;0.40;0.40;;;16.20;99.90;;;;;;4430486;32;20069;-75
2021/09/17 02:37:25;;;;;;;0.40;0.40;;;16.20;99.90;;;;;;4415541;32;20128;-75
2021/09/17 02:39:51;;;;;;;0.45;0.45;;;16.20;99.90;;;;;;4415657;32;20066;-75
2021/09/17 02:42:16;;;;;;;0.40;0.40;;;16.30;99.90;;;;;;4414457;32;20069;-75
2021/09/17 02:44:42;;;;;;;0.40;0.40;;;16.30;99.90;;;;;;4416812;32;20078;-75
2021/09/17 02:47:07;;;;;;;0.40;0.40;;;16.30;99.90;;;;;;4415807;32;20058;-75
2021/09/17 02:49:33;;;;;;;0.30;0.30;;;16.20;99.90;;;;;;4415297;32;20062;-75
2021/09/17 02:52:00;;;;;;;0.30;0.30;;;16.20;99.90;;;;;;4415608;32;20066;-75
2021/09/17 02:54:25;;;;;;;0.43;0.40;;;16.20;99.90;;;;;;4415076;32;20090;-75
2021/09/17 02:56:51;;;;;;;0.30;0.30;;;16.10;99.90;;;;;;4415037;32;20070;-75
2021/09/17 02:59:16;;;;;;;0.47;0.47;;;16.00;99.90;;;;;;4414589;32;20120;-75
2021/09/17 03:01:42;;;;;;;1.25;0.30;;;15.90;99.90;;;;;;4414927;32;20401;-75
2021/09/17 03:04:07;;;;;;;0.40;0.40;;;15.80;99.90;;;;;;4415049;32;20073;-76
2021/09/17 03:06:33;;;;;;;0.37;0.37;;;15.70;99.90;;;;;;4415666;32;20133;-75
2021/09/17 03:08:58;;;;;;;0.30;0.30;;;15.60;99.90;;;;;;4415484;32;20128;-75
2021/09/17 03:11:24;;;;;;;0.30;0.30;;;15.70;99.90;;;;;;4414801;32;20064;-75
2021/09/17 03:13:49;;;;;;;0.40;0.40;;;15.70;99.90;;;;;;4414958;32;20062;-75
2021/09/17 03:16:15;;;;;;;0.60;0.60;;;15.70;99.90;;;;;;4418234;32;20099;-75
2021/09/17 03:18:40;;;;;;;0.30;0.30;;;15.70;99.90;;;;;;4430259;32;20061;-75
2021/09/17 03:21:07;;;;;;;0.40;0.40;;;15.60;99.90;;;;;;4428022;32;20089;-75
2021/09/17 03:23:33;;;;;;;0.30;0.30;;;15.60;99.90;;;;;;4399948;32;20550;-75
2021/09/17 03:25:58;;;;;;;0.40;0.40;;;15.60;99.90;;;;;;4400019;32;20078;-75
2021/09/17 03:28:24;;;;;;;0.40;0.40;;;15.60;99.90;;;;;;4398768;32;20388;-75
2021/09/17 03:30:50;;;;;;;0.40;0.40;;;15.70;99.90;;;;;;4399356;32;20074;-75
2021/09/17 03:33:16;;;;;;;0.47;0.47;;;15.70;99.90;;;;;;4399887;32;20071;-75
2021/09/17 03:35:42;;;;;;;0.60;0.60;;;15.60;99.90;;;;;;4404910;32;20085;-75
2021/09/17 03:38:08;;;;;;;0.60;0.60;;;15.60;99.90;;;;;;4414822;32;20539;-75
2021/09/17 03:40:36;;;;;;;0.50;0.50;;;15.60;99.90;;;;;;4414196;32;20077;-75
2021/09/17 03:43:02;;;;;;;0.30;0.30;;;15.60;99.90;;;;;;4414269;32;20069;-75
2021/09/17 03:45:28;;;;;;;0.22;0.22;;;15.60;99.90;;;;;;4414984;32;20078;-76
2021/09/17 03:47:53;;;;;;;0.40;0.40;;;15.50;99.90;;;;;;4414621;32;20066;-76
2021/09/17 03:50:19;;;;;;;0.30;0.30;;;15.40;99.90;;;;;;4414813;32;20069;-76
2021/09/17 03:52:44;;;;;;;1.17;0.45;;;15.40;99.90;;;;;;4414815;32;20417;-75
2021/09/17 03:55:10;;;;;;;0.50;0.50;;;15.50;99.90;;;;;;4414232;32;20078;-75
2021/09/17 03:57:36;;;;;;;0.40;0.40;;;15.50;99.90;;;;;;4413824;32;20082;-75
2021/09/17 04:00:04;;;;;;;0.32;0.32;;;15.40;99.90;;;;;;4413882;32;20081;-75
2021/09/17 04:02:29;;;;;;;0.22;0.22;;;15.50;99.90;;;;;;4414907;32;20058;-75
2021/09/17 04:04:55;;;;;;;0.68;0.68;;;15.50;99.90;;;;;;4414642;32;20136;-75
2021/09/17 04:07:20;;;;;;;3.83;0.70;;;15.50;99.90;;;;;;4415810;32;20082;-75
2021/09/17 04:09:46;;;;;;;0.50;0.50;;;15.50;99.90;;;;;;4413955;32;20069;-75
2021/09/17 04:12:11;;;;;;;0.30;0.30;;;15.50;99.90;;;;;;4413814;32;20073;-75
2021/09/17 04:14:37;;;;;;;0.30;0.30;;;15.50;99.90;;;;;;4414260;32;20511;-75
2021/09/17 04:17:03;;;;;;;2.37;1.15;;;15.50;99.90;;;;;;4422216;32;20077;-75
2021/09/17 04:19:28;;;;;;;0.30;0.30;;;15.50;99.90;;;;;;4429308;32;20073;-75
2021/09/17 04:21:54;;;;;;;5.85;0.70;;;15.40;99.90;;;;;;4415674;32;20129;-75
2021/09/17 04:24:20;;;;;;;0.30;0.30;;;15.40;99.90;;;;;;4412477;32;20062;-75
2021/09/17 04:26:45;;;;;;;0.20;0.20;;;15.30;99.90;;;;;;4413227;32;20070;-76
2021/09/17 04:29:11;;;;;;;0.30;0.30;;;15.30;99.90;;;;;;4426242;32;20069;-75
2021/09/17 04:31:36;;;;;;;0.40;0.40;;;15.30;99.90;;;;;;4430006;32;20065;-77
2021/09/17 04:34:02;;;;;;;0.20;0.20;;;15.20;99.90;;;;;;4428906;32;20073;-76
2021/09/17 04:36:27;;;;;;;0.35;0.35;;;15.20;99.90;;;;;;4420248;32;20382;-77
2021/09/17 04:38:53;;;;;;;0.40;0.40;;;15.20;99.90;;;;;;4415226;32;20400;-75
2021/09/17 04:41:18;;;;;;;0.40;0.40;;;15.20;99.90;;;;;;4425987;32;20128;-76
2021/09/17 04:43:44;;;;;;;0.30;0.30;;;15.20;99.90;;;;;;4429351;32;20069;-75
2021/09/17 04:46:09;;;;;;;0.37;0.37;;;15.20;99.90;;;;;;4429586;32;20077;-76
2021/09/17 04:48:35;;;;;;;0.30;0.30;;;15.30;99.90;;;;;;4429895;32;20108;-75
2021/09/17 04:51:00;;;;;;;1.27;0.82;;;15.30;99.90;;;;;;4428740;32;20057;-75
2021/09/17 04:53:26;;;;;;;0.30;0.30;;;15.30;99.90;;;;;;4419285;32;20070;-75
2021/09/17 04:55:52;;;;;;;0.30;0.30;;;15.30;99.90;;;;;;4407999;32;20078;-75
2021/09/17 04:58:17;;;;;;;0.32;0.32;;;15.30;99.90;;;;;;4412129;32;20089;-75
2021/09/17 05:00:43;;;;;;;0.30;0.30;;;15.20;99.90;;;;;;4405725;32;20081;-76
2021/09/17 05:03:08;;;;;;;0.93;0.50;;;15.30;99.90;;;;;;4403034;32;20074;-75
2021/09/17 05:05:34;;;;;;;2.10;0.77;;;15.20;99.90;;;;;;4411560;32;20116;-75
2021/09/17 05:08:00;;;;;;;0.30;0.30;;;15.10;99.90;;;;;;4416613;32;20081;-75
2021/09/17 05:10:26;;;;;;;0.20;0.20;;;15.20;99.90;;;;;;4427418;32;20061;-75
2021/09/17 05:12:51;;;;;;;0.32;0.32;;;15.20;99.90;;;;;;4410218;32;20078;-75
2021/09/17 05:15:17;;;;;;;0.20;0.20;;;15.30;99.90;;;;;;4413410;32;20061;-75
2021/09/17 05:17:44;;;;;;;0.28;0.28;;;15.30;99.90;;;;;;4400183;32;20073;-74
2021/09/17 05:20:11;;;;;;;0.30;0.30;;;15.30;99.90;;;;;;4411069;32;20499;-75
2021/09/17 05:22:36;;;;;;;0.30;0.30;;;15.30;99.90;;;;;;4405982;32;20522;-74
2021/09/17 05:25:02;;;;;;;0.30;0.30;;;15.30;99.90;;;;;;4399793;32;20124;-75
2021/09/17 05:27:27;;;;;;;0.40;0.40;;;15.30;99.90;;;;;;4396480;32;20097;-76
2021/09/17 05:29:53;;;;;;;0.22;0.22;;;15.30;99.90;;;;;;4402528;32;20095;-75
2021/09/17 05:32:21;;;;;;;0.30;0.30;;;15.30;99.90;;;;;;4380437;32;20209;-75
2021/09/17 05:34:47;;;;;;;0.28;0.28;;;15.40;99.90;;;;;;4406341;32;20073;-75
2021/09/17 05:37:13;;;;;;;0.30;0.30;;;15.40;99.90;;;;;;4399744;32;20098;-75
2021/09/17 05:39:38;;;;;;;0.30;0.30;;;15.40;99.90;;;;;;4405052;32;20124;-76
2021/09/17 05:42:04;;;;;;;0.30;0.30;;;15.50;99.90;;;;;;4406743;32;20140;-75
2021/09/17 05:44:30;;;;;;;0.30;0.30;;;15.50;99.90;;;;;;4405930;32;20073;-75
2021/09/17 05:46:55;;;;;;;0.20;0.20;;;15.50;99.90;;;;;;4406355;32;20070;-75
2021/09/17 05:49:22;;;;;;;0.25;0.25;;;15.50;99.90;;;;;;4406279;32;20136;-76
2021/09/17 05:51:47;;;;;;;0.62;0.62;;;15.40;99.90;;;;;;4402090;32;20439;-76
2021/09/17 05:54:13;;;;;;;0.30;0.30;;;15.50;99.90;;;;;;4402547;32;20341;-76
2021/09/17 05:56:38;;;;;;;0.30;0.30;;;15.50;99.90;;;;;;4401520;32;20101;-75
2021/09/17 05:59:04;;;;;;;0.28;0.28;;;15.40;99.90;;;;;;4398068;32;20484;-76
2021/09/17 06:01:29;;;;;;;0.30;0.30;;;15.50;99.90;;;;;;4393582;32;20101;-76
2021/09/17 06:03:55;;;;;;;0.40;0.40;;;15.50;99.90;;;;;;4404388;32;20548;-76
2021/09/17 06:06:20;;;;;;;0.30;0.30;;;15.50;99.90;;;;;;4400270;32;20081;-75
2021/09/17 06:08:48;;;;;;;0.30;0.30;;;15.60;99.90;;;;;;4400054;32;20062;-76
2021/09/17 06:11:17;;;;;;;0.30;0.30;;;15.60;99.90;;;;;;4403791;32;20505;-76
2021/09/17 06:13:42;;;;;;;0.40;0.40;;;15.60;99.90;;;;;;4399980;32;20502;-77
2021/09/17 06:16:08;;;;;;;0.30;0.30;;;15.60;99.90;;;;;;4407873;32;20081;-76
2021/09/17 06:18:34;;;;;;;0.68;0.68;;;15.60;99.90;;;;;;4408811;32;20425;-76
2021/09/17 06:20:59;;;;;;;1.00;0.80;;;15.60;99.90;;;;;;4410195;32;20070;-76
2021/09/17 06:23:27;;;;;;;0.40;0.40;;;15.60;99.90;;;;;;4399166;32;87907;-77
2021/09/17 06:25:53;;;;;;;0.30;0.30;;;15.60;99.90;;;;;;4404170;32;20074;-76
2021/09/17 06:28:19;;;;;;;0.30;0.30;;;15.60;99.90;;;;;;4408252;32;20062;-76
2021/09/17 06:30:44;;;;;;;0.30;0.30;;;15.60;99.90;;;;;;4407600;32;20102;-77
2021/09/17 06:33:10;;;;;;;0.32;0.32;;;15.70;99.90;;;;;;4410624;32;20456;-76
2021/09/17 06:35:36;;;;;;;0.30;0.30;;;15.70;99.90;;;;;;4407311;32;20062;-76
2021/09/17 06:38:02;;;;;;;0.75;0.75;;;15.60;99.90;;;;;;4398110;32;20135;-77
2021/09/17 06:40:28;;;;;;;0.20;0.20;;;15.60;99.90;;;;;;4401661;32;20582;-77
2021/09/17 06:42:55;;;;;;;0.20;0.20;;;15.60;99.90;;;;;;4402105;32;20081;-76
2021/09/17 06:45:21;;;;;;;0.20;0.20;;;15.60;99.90;;;;;;4399988;32;20074;-77
2021/09/17 06:47:51;;;;;;;0.20;0.20;;;15.50;99.90;;;;;;4406678;32;20066;-77
2021/09/17 06:50:18;;;;;;;0.30;0.30;;;15.60;99.90;;;;;;4406674;32;20077;-77
2021/09/17 06:52:48;;;;;;;1.48;0.50;;;15.60;99.90;;;;;;4406633;32;20070;-77
2021/09/17 06:55:16;;;;;;;0.30;0.30;;;15.60;99.90;;;;;;4406724;32;20121;-78
2021/09/17 06:57:44;;;;;;;0.30;0.30;;;15.60;99.90;;;;;;4409538;32;20085;-76
2021/09/17 07:00:15;;;;;;;0.28;0.28;;;15.50;99.90;;;;;;4404879;32;20094;-76
2021/09/17 07:02:41;;;;;;;;;;;15.50;99.90;;;;;;4402747;32;20086;-76
2021/09/17 07:05:07;;;;;;;0.30;0.30;;;15.40;99.90;;;;;;4401252;32;20462;-77
2021/09/17 07:07:32;;;;;;;0.25;0.25;;;15.50;99.90;;;;;;4404782;32;20097;-76
2021/09/17 07:09:58;;;;;;;0.30;0.30;;;15.50;99.90;;;;;;4401128;32;20074;-76
2021/09/17 07:12:23;;;;;;;0.43;0.43;;;15.40;99.90;;;;;;4405123;32;20054;-76
2021/09/17 07:14:49;;;;;;;0.40;0.40;;;15.50;99.90;;;;;;4405120;32;21516;-76
2021/09/17 07:17:14;;;;;;;0.30;0.30;;;15.50;99.90;;;;;;4405895;32;20097;-76
2021/09/17 07:19:40;;;;;;;0.20;0.20;;;15.60;99.90;;;;;;4402989;32;20120;-76
2021/09/17 07:22:07;;;;;;;0.30;0.30;;;15.70;99.90;;;;;;4409399;32;20089;-76
2021/09/17 07:24:33;;;;;;;0.35;0.35;;;15.70;99.90;;;;;;4403531;32;21363;-76
2021/09/17 07:26:58;;;;;;;0.25;0.25;;;15.70;99.90;;;;;;4404824;32;20428;-76
2021/09/17 07:29:24;;;;;;;0.20;0.20;;;15.70;99.90;;;;;;4408148;32;20149;-76
2021/09/17 07:31:49;;;;;;;0.30;0.30;;;15.70;99.90;;;;;;4400780;32;20387;-76
2021/09/17 07:34:15;;;;;;;0.30;0.30;;;15.70;99.90;;;;;;4398204;32;20490;-76
2021/09/17 07:36:42;;;;;;;0.20;0.20;;;15.70;99.90;;;;;;4400981;32;20065;-75
2021/09/17 07:39:09;;;;;;;5.35;1.65;;;15.70;99.90;;;;;;4395467;32;20499;-75
2021/09/17 07:41:35;;;;;;;0.30;0.30;;;15.70;99.90;;;;;;4401035;32;21967;-75
2021/09/17 07:44:00;;;;;;;0.30;0.30;;;15.80;99.90;;;;;;4401579;32;20065;-75
2021/09/17 07:46:26;;;;;;;0.55;0.55;;;15.80;99.90;;;;;;4405485;32;20061;-74
2021/09/17 07:48:51;;;;;;;0.30;0.30;;;15.80;99.90;;;;;;4406506;32;20160;-75
2021/09/17 07:51:17;;;;;;;0.30;0.30;;;15.90;99.90;;;;;;4404983;32;20140;-75
2021/09/17 07:53:42;;;;;;;0.20;0.20;;;15.90;99.90;;;;;;4402560;32;20869;-75
2021/09/17 07:56:08;;;;;;;0.20;0.20;;;15.90;99.90;;;;;;4403736;32;20065;-75
2021/09/17 07:58:33;;;;;;;0.30;0.30;;;15.90;99.90;;;;;;4404582;32;20141;-76
2021/09/17 08:00:59;;;;;;;0.30;0.30;;;16.00;99.90;;;;;;4400396;32;20547;-75
2021/09/17 08:03:29;;;;;;;0.30;0.30;;;16.00;99.90;;;;;;4404820;32;20076;-76
2021/09/17 08:05:55;;;;;;;0.40;0.40;;;16.10;99.90;;;;;;4407285;32;20094;-76
2021/09/17 08:08:21;;;;;;;0.40;0.40;;;16.10;99.90;;;;;;4401165;32;20920;-73
2021/09/17 08:10:46;;;;;;;0.40;0.40;;;16.20;99.90;;;;;;4402307;32;20072;-75
2021/09/17 08:13:12;;;;;;;0.30;0.30;;;16.20;99.90;;;;;;4402301;32;20069;-75
2021/09/17 08:15:38;;;;;;;0.30;0.30;;;16.20;99.90;;;;;;4407959;32;20174;-75
2021/09/17 08:18:03;;;;;;;0.30;0.30;;;16.20;99.90;;;;;;4399320;32;20813;-75
2021/09/17 08:20:29;;;;;;;0.85;0.85;;;16.20;99.90;;;;;;4400373;32;20159;-75
2021/09/17 08:22:54;;;;;;;0.40;0.40;;;16.10;99.90;;;;;;4399438;32;20116;-76
2021/09/17 08:25:20;;;;;;;0.30;0.30;;;16.10;99.90;;;;;;4400308;32;20078;-76
2021/09/17 08:27:46;;;;;;;0.30;0.30;;;16.10;99.90;;;;;;4408194;32;20081;-75
2021/09/17 08:30:12;;;;;;;0.32;0.32;;;16.20;99.90;;;;;;4404193;32;20065;-76
2021/09/17 08:32:39;;;;;;;0.30;0.30;;;16.20;99.90;;;;;;4406738;32;20102;-75
2021/09/17 08:35:06;;;;;;;0.30;0.30;;;16.20;99.90;;;;;;4401257;32;20155;-77
2021/09/17 08:37:32;;;;;;;0.30;0.30;;;16.20;99.90;;;;;;4400698;32;20154;-76
2021/09/17 08:39:58;;;;;;;0.22;0.22;;;16.20;99.90;;;;;;4396427;32;20724;-75
2021/09/17 08:42:23;;;;;;;0.50;0.50;;;16.30;99.90;;;;;;4403122;32;20481;-75
2021/09/17 08:44:49;;;;;;;0.28;0.28;;;16.20;99.90;;;;;;4401458;32;20131;-76
2021/09/17 08:47:17;;;;;;;0.30;0.30;;;16.20;99.90;;;;;;4401643;32;20168;-76
2021/09/17 08:49:45;;;;;;;0.30;0.30;;;16.20;99.90;;;;;;4405730;32;20086;-76
2021/09/17 08:52:10;;;;;;;8.10;0.85;;;16.20;99.90;;;;;;4401275;32;20094;-76
2021/09/17 08:54:36;;;;;;;0.30;0.30;;;16.20;99.90;;;;;;4400417;32;20090;-76
2021/09/17 08:57:01;;;;;;;0.30;0.30;;;16.10;99.90;;;;;;4400347;32;21035;-74
2021/09/17 08:59:27;;;;;;;0.37;0.37;;;16.20;99.90;;;;;;4402751;32;20069;-74
2021/09/17 09:01:53;;;;;;;0.20;0.20;;;16.20;99.90;;;;;;4403855;32;20082;-75
2021/09/17 09:04:30;;;;;;;0.30;0.30;;;16.00;99.90;;;;;;4401408;32;20062;-76
2021/09/17 09:07:04;;;;;;;0.35;0.35;;;16.00;99.90;;;;;;4396698;32;20120;-75
2021/09/17 09:09:30;;;;;;;0.40;0.40;;;16.00;99.90;;;;;;4398457;32;20077;-75
2021/09/17 09:11:55;;;;;;;0.30;0.30;;;16.00;99.90;;;;;;4404781;32;20111;-75
2021/09/17 09:14:21;;;;;;;0.30;0.30;;;15.90;99.90;;;;;;4397195;32;20086;-75
2021/09/17 09:16:51;;;;;;;0.43;0.43;;;15.90;99.90;;;;;;4398260;32;20084;-75
2021/09/17 09:19:23;;;;;;;0.30;0.30;;;15.80;99.90;;;;;;4395900;32;20085;-75
2021/09/17 09:21:51;;;;;;;0.40;0.40;;;15.80;99.90;;;;;;4402686;32;20139;-76
2021/09/17 09:24:19;;;;;;;0.62;0.62;;;15.80;99.90;;;;;;4400332;32;20078;-75
2021/09/17 09:26:45;;;;;;;0.37;0.37;;;15.90;99.90;;;;;;4408802;27;20663;-66
2021/09/17 09:29:31;;;;;;;0.30;0.30;;;16.00;99.90;;;;;;4384024;32;20114;-66
2021/09/17 09:31:57;;;;;;;0.30;0.30;;;16.10;99.90;;;;;;4381502;32;20114;-67
2021/09/17 09:34:48;;;;;;;0.30;0.30;;;16.10;99.90;;;;;;4374717;32;22223;-66
2021/09/17 09:37:13;;;;;;;0.50;0.50;;;16.10;99.90;;;;;;4387925;32;20146;-67
2021/09/17 09:39:57;;;;;;;0.37;0.37;;;15.90;99.90;;;;;;4387715;32;20148;-67
2021/09/17 09:42:45;;;;;;;0.30;0.30;;;15.90;99.90;;;;;;4386533;32;20239;-66
2021/09/17 09:45:21;;;;;;;0.20;0.20;;;15.90;99.90;;;;;;4366157;32;20574;-66
2021/09/17 09:47:51;;;;;;;0.35;0.35;;;15.90;99.90;;;;;;4377989;32;20110;-66
2021/09/17 09:50:22;;;;;;;13.95;2.50;;;15.80;99.90;;;;;;4380800;32;20062;-67
2021/09/17 09:52:53;;;;;;;0.30;0.30;;;15.90;99.90;;;;;;4371093;32;20069;-67
2021/09/17 09:55:19;;;;;;;0.30;0.30;;;15.90;99.90;;;;;;4379054;32;20178;-66
2021/09/17 09:57:46;;;;;;;0.30;0.30;;;15.90;99.90;;;;;;4375903;32;20083;-66
2021/09/17 10:00:13;;;;;;;0.30;0.30;;;15.90;99.90;;;;;;4363337;32;20126;-67
2021/09/17 10:02:41;;;;;;;4.37;0.30;;;16.00;99.90;;;;;;4386473;32;20754;-66
2021/09/17 10:05:09;;;;;;;0.30;0.30;;;16.00;99.90;;;;;;4388372;32;20062;-66
2021/09/17 10:07:35;;;;;;;0.30;0.30;;;16.00;99.90;;;;;;4369520;32;20144;-66
2021/09/17 10:10:03;;;;;;;0.30;0.30;;;15.90;99.90;;;;;;4370086;32;20157;-66
2021/09/17 10:12:29;;;;;;;0.30;0.30;;;16.00;99.90;;;;;;4376973;32;20610;-67
2021/09/17 10:14:57;;;;;;;0.85;0.70;;;15.90;99.90;;;;;;4379424;32;20123;-66
2021/09/17 10:17:27;;;;;;;0.30;0.30;;;15.90;99.90;;;;;;4381761;32;20094;-67
2021/09/17 10:19:54;;;;;;;0.30;0.30;;;15.90;99.90;;;;;;4378160;32;20110;-67
2021/09/17 10:22:40;;;;;;;0.30;0.30;;;15.80;99.90;;;;;;4374626;32;20090;-67
2021/09/17 10:25:10;;;;;;;0.28;0.28;;;15.90;99.90;;;;;;4353479;32;20083;-67
2021/09/17 10:27:39;;;;;;;0.40;0.40;;;16.10;99.90;;;;;;4377479;32;20103;-67
2021/09/17 10:30:08;;;;;;;0.30;0.30;;;16.20;99.90;;;;;;4378901;32;20067;-67
2021/09/17 10:32:37;;;;;;;0.40;0.40;;;16.30;99.90;;;;;;4385895;32;20476;-67
2021/09/17 10:35:10;;;;;;;0.30;0.30;;;16.50;99.90;;;;;;4379231;32;20086;-68
2021/09/17 10:37:57;;;;;;;0.30;0.30;;;16.60;99.90;;;;;;4364255;32;20145;-68
2021/09/17 10:40:43;;;;;;;0.20;0.20;;;16.60;99.90;;;;;;4366137;32;20082;-68
2021/09/17 10:43:11;;;;;;;0.30;0.30;;;16.90;99.90;;;;;;4361732;32;20188;-67
2021/09/17 10:45:42;;;;;;;0.40;0.40;;;17.00;99.90;;;;;;4372342;32;20153;-66
2021/09/17 10:48:08;;;;;;;0.30;0.30;;;17.20;99.90;;;;;;4375412;32;20078;-66
2021/09/17 10:50:40;;;;;;;0.20;0.20;;;17.30;99.90;;;;;;4372945;32;20073;-66
2021/09/17 10:53:05;;;;;;;0.30;0.30;;;17.30;99.90;;;;;;4363230;32;20220;-66
2021/09/17 10:55:56;;;;;;;0.30;0.30;;;17.40;99.90;;;;;;4372803;32;20492;-66
2021/09/17 10:58:26;;;;;;;0.22;0.22;;;17.30;99.90;;;;;;4367156;32;20169;-66
2021/09/17 11:00:58;;;;;;;0.30;0.30;;;17.20;99.90;;;;;;4378140;32;20445;-67
2021/09/17 11:03:44;;;;;;;0.30;0.30;;;17.10;99.90;;;;;;4386980;32;20120;-67
2021/09/17 11:06:25;;;;;;;0.30;0.30;;;17.00;99.90;;;;;;4379847;32;20082;-68
2021/09/17 11:09:06;;;;;;;4.75;1.27;;;16.80;99.90;;;;;;4376012;32;20090;-67
2021/09/17 11:11:38;;;;;;;0.20;0.20;;;16.70;99.90;;;;;;4376795;32;20083;-67
2021/09/17 11:14:06;;;;;;;0.20;0.20;;;16.80;99.90;;;;;;4379963;32;20066;-67
2021/09/17 11:16:33;;;;;;;0.30;0.30;;;16.90;99.90;;;;;;4366818;32;20065;-67
2021/09/17 11:19:05;;;;;;;0.30;0.30;;;17.10;99.90;;;;;;4382027;32;20070;-67
2021/09/17 11:21:37;;;;;;;0.22;0.22;;;17.00;99.90;;;;;;4374187;32;20091;-67
2021/09/17 11:24:04;;;;;;;0.30;0.30;;;16.90;99.90;;;;;;4374447;32;20552;-67
2021/09/17 11:26:32;;;;;;;0.30;0.30;;;16.90;99.90;;;;;;4354202;32;20470;-67
2021/09/17 11:29:04;;;;;;;0.20;0.20;;;16.90;99.90;;;;;;4385380;32;20074;-67
2021/09/17 11:31:33;;;;;;;1.20;0.45;;;17.00;99.90;;;;;;4366936;32;20071;-67
2021/09/17 11:34:00;;;;;;;0.30;0.30;;;17.10;99.90;;;;;;4370756;32;20572;-67
2021/09/17 11:36:54;;;;;;;0.37;0.37;;;17.20;99.90;;;;;;4377589;32;21029;-67
2021/09/17 11:39:23;;;;;;;0.20;0.20;;;17.30;99.90;;;;;;4365068;32;20101;-67
2021/09/17 11:41:53;;;;;;;0.30;0.30;;;17.40;99.90;;;;;;4380561;32;20086;-67
2021/09/17 11:44:44;;;;;;;0.50;0.50;;;17.50;99.90;;;;;;4365917;32;20600;-67
2021/09/17 11:47:14;;;;;;;0.30;0.30;;;17.50;99.90;;;;;;4359882;32;20051;-67
2021/09/17 11:49:43;;;;;;;0.30;0.30;;;17.40;99.90;;;;;;4354333;32;20173;-67
2021/09/17 11:52:11;;;;;;;0.20;0.20;;;17.40;99.90;;;;;;4381518;32;20062;-67
2021/09/17 11:54:36;;;;;;;0.20;0.20;;;17.50;99.90;;;;;;4357746;32;20070;-67
2021/09/17 11:57:05;;;;;;;0.30;0.30;;;17.50;99.90;;;;;;4369495;32;20193;-67
2021/09/17 11:59:41;;;;;;;0.30;0.30;;;17.50;99.90;;;;;;4379626;32;20541;-67
2021/09/17 12:02:17;;;;;;;0.30;0.30;;;17.60;99.90;;;;;;4376501;32;20532;-67
2021/09/17 12:04:52;;;;;;;0.30;0.30;;;17.60;99.90;;;;;;4372369;32;20151;-67
2021/09/17 12:07:18;;;;;;;0.30;0.30;;;17.50;99.90;;;;;;4375779;32;20054;-67
2021/09/17 12:09:44;;;;;;;0.28;0.28;;;17.60;99.90;;;;;;4376653;32;20126;-67
2021/09/17 12:12:11;;;;;;;0.20;0.20;;;17.60;99.90;;;;;;4366571;32;20531;-67
2021/09/17 12:14:38;;;;;;;0.30;0.30;;;17.50;99.90;;;;;;4380590;32;20136;-67
2021/09/17 12:17:07;;;;;;;0.30;0.30;;;17.50;99.90;;;;;;4379962;32;20063;-67
2021/09/17 12:19:54;;;;;;;3.92;0.45;;;17.30;99.90;;;;;;4371268;32;20146;-67
2021/09/17 12:22:46;;;;;;;0.30;0.30;;;17.00;99.90;;;;;;4365224;32;20079;-67
2021/09/17 12:25:15;;;;;;;0.50;0.50;;;17.00;99.90;;;;;;4367691;32;20069;-67
2021/09/17 12:27:44;;;;;;;0.37;0.37;;;16.90;99.90;;;;;;4368319;32;20152;-67
2021/09/17 12:30:14;;;;;;;0.30;0.30;;;17.00;99.90;;;;;;4382478;32;20471;-67
2021/09/17 12:32:41;;;;;;;0.30;0.30;;;17.10;99.90;;;;;;4380742;32;20074;-67
2021/09/17 12:35:10;;;;;;;0.30;0.30;;;17.00;99.90;;;;;;4362843;32;20122;-67
2021/09/17 12:37:36;;;;;;;0.20;0.20;;;17.10;99.90;;;;;;4371455;32;20078;-66
2021/09/17 12:40:13;;;;;;;0.30;0.30;;;17.10;99.90;;;;;;4385802;32;20189;-67
2021/09/17 12:42:40;;;;;;;0.30;0.30;;;17.10;99.90;;;;;;4364229;32;20440;-67
2021/09/17 12:45:08;;;;;;;0.20;0.20;;;17.00;99.90;;;;;;4368375;32;20071;-67
2021/09/17 12:47:35;;;;;;;0.25;0.25;;;16.90;99.90;;;;;;4378075;32;20748;-67
2021/09/17 12:50:07;;;;;;;0.28;0.28;;;16.80;99.90;;;;;;4369663;32;20085;-66